sensor_id;sensor_type;location;lat;lon;timestamp;pressure;altitude;pressure_sealevel;temperature;humidity
17311;BME280;8773;43.300;0.394;2023-02-03T00:00:08;101554.19;;;2.92;67.90
17311;BME280;8773;43.300;0.394;2023-02-03T00:02:36;101554.19;;;2.92;68.52
17311;BME280;8773;43.300;0.394;2023-02-03T00:05:04;101559.56;;;2.89;68.39
17311;BME280;8773;43.300;0.394;2023-02-03T00:07:33;101550.63;;;2.93;68.32
17311;BME280;8773;43.300;0.394;2023-02-03T00:10:02;101547.19;;;2.91;68.03
17311;BME280;8773;43.300;0.394;2023-02-03T00:12:30;101544.72;;;2.87;68.29
17311;BME280;8773;43.300;0.394;2023-02-03T00:14:58;101549.31;;;2.83;67.98
17311;BME280;8773;43.300;0.394;2023-02-03T00:17:28;101550.28;;;2.81;68.32
17311;BME280;8773;43.300;0.394;2023-02-03T00:19:56;101547.81;;;2.76;67.81
17311;BME280;8773;43.300;0.394;2023-02-03T00:22:24;101551.44;;;2.73;68.32
17311;BME280;8773;43.300;0.394;2023-02-03T00:24:51;101546.72;;;2.60;68.08
17311;BME280;8773;43.300;0.394;2023-02-03T00:27:19;101546.41;;;2.67;68.35
17311;BME280;8773;43.300;0.394;2023-02-03T00:29:47;101549.00;;;2.69;67.82
17311;BME280;8773;43.300;0.394;2023-02-03T00:32:15;101552.66;;;2.65;68.80
17311;BME280;8773;43.300;0.394;2023-02-03T00:34:45;101556.78;;;2.72;67.84
17311;BME280;8773;43.300;0.394;2023-02-03T00:37:13;101551.56;;;2.70;68.51
17311;BME280;8773;43.300;0.394;2023-02-03T00:39:41;101551.63;;;2.69;67.75
17311;BME280;8773;43.300;0.394;2023-02-03T00:42:09;101556.81;;;2.49;68.71
17311;BME280;8773;43.300;0.394;2023-02-03T00:44:37;101559.44;;;2.49;68.38
17311;BME280;8773;43.300;0.394;2023-02-03T00:47:05;101561.00;;;2.54;68.45
17311;BME280;8773;43.300;0.394;2023-02-03T00:49:33;101560.75;;;2.60;68.63
17311;BME280;8773;43.300;0.394;2023-02-03T00:52:02;101562.66;;;2.57;67.74
17311;BME280;8773;43.300;0.394;2023-02-03T00:54:31;101555.66;;;2.56;67.81
17311;BME280;8773;43.300;0.394;2023-02-03T00:56:59;101560.94;;;2.56;67.90
17311;BME280;8773;43.300;0.394;2023-02-03T00:59:27;101563.69;;;2.53;68.48
17311;BME280;8773;43.300;0.394;2023-02-03T01:01:58;101554.44;;;2.42;68.23
17311;BME280;8773;43.300;0.394;2023-02-03T01:04:26;101556.28;;;2.40;68.15
17311;BME280;8773;43.300;0.394;2023-02-03T01:06:53;101554.78;;;2.33;68.35
17311;BME280;8773;43.300;0.394;2023-02-03T01:09:25;101559.53;;;2.24;69.19
17311;BME280;8773;43.300;0.394;2023-02-03T01:11:53;101562.94;;;2.27;68.38
17311;BME280;8773;43.300;0.394;2023-02-03T01:14:21;101561.31;;;2.23;69.16
17311;BME280;8773;43.300;0.394;2023-02-03T01:16:49;101556.28;;;2.17;68.41
17311;BME280;8773;43.300;0.394;2023-02-03T01:19:17;101568.38;;;2.23;68.58
17311;BME280;8773;43.300;0.394;2023-02-03T01:21:45;101563.97;;;2.23;68.03
17311;BME280;8773;43.300;0.394;2023-02-03T01:24:13;101564.81;;;2.24;68.02
17311;BME280;8773;43.300;0.394;2023-02-03T01:26:43;101559.88;;;2.15;68.75
17311;BME280;8773;43.300;0.394;2023-02-03T01:29:11;101560.63;;;2.18;68.32
17311;BME280;8773;43.300;0.394;2023-02-03T01:31:40;101560.47;;;2.23;68.67
17311;BME280;8773;43.300;0.394;2023-02-03T01:34:11;101558.00;;;2.18;69.04
17311;BME280;8773;43.300;0.394;2023-02-03T01:36:39;101559.03;;;2.14;68.94
17311;BME280;8773;43.300;0.394;2023-02-03T01:39:07;101562.69;;;2.10;69.25
17311;BME280;8773;43.300;0.394;2023-02-03T01:41:38;101561.66;;;2.14;68.74
17311;BME280;8773;43.300;0.394;2023-02-03T01:44:44;101564.41;;;2.11;68.58
17311;BME280;8773;43.300;0.394;2023-02-03T01:47:18;101557.75;;;2.01;68.59
17311;BME280;8773;43.300;0.394;2023-02-03T01:49:52;101571.72;;;2.03;68.92
17311;BME280;8773;43.300;0.394;2023-02-03T01:52:22;101556.06;;;2.00;68.43
17311;BME280;8773;43.300;0.394;2023-02-03T01:54:55;101562.47;;;1.93;69.38
17311;BME280;8773;43.300;0.394;2023-02-03T01:57:26;101563.63;;;1.86;68.94
17311;BME280;8773;43.300;0.394;2023-02-03T01:59:58;101571.50;;;1.86;68.92
17311;BME280;8773;43.300;0.394;2023-02-03T02:02:29;101558.78;;;1.73;69.38
17311;BME280;8773;43.300;0.394;2023-02-03T02:05:02;101562.31;;;1.72;70.04
17311;BME280;8773;43.300;0.394;2023-02-03T02:07:33;101567.38;;;1.78;69.17
17311;BME280;8773;43.300;0.394;2023-02-03T02:10:01;101563.81;;;1.80;69.19
17311;BME280;8773;43.300;0.394;2023-02-03T02:12:29;101552.50;;;1.77;69.29
17311;BME280;8773;43.300;0.394;2023-02-03T02:14:59;101556.78;;;1.80;69.40
17311;BME280;8773;43.300;0.394;2023-02-03T02:17:45;101553.28;;;1.80;69.02
17311;BME280;8773;43.300;0.394;2023-02-03T02:20:47;101551.34;;;1.85;68.77
17311;BME280;8773;43.300;0.394;2023-02-03T02:23:58;101560.34;;;1.79;69.11
17311;BME280;8773;43.300;0.394;2023-02-03T02:27:02;101555.16;;;1.53;70.07
17311;BME280;8773;43.300;0.394;2023-02-03T02:33:14;101548.78;;;1.33;71.23
17311;BME280;8773;43.300;0.394;2023-02-03T02:35:55;101546.56;;;1.48;70.54
17311;BME280;8773;43.300;0.394;2023-02-03T02:38:34;101543.41;;;1.61;69.69
17311;BME280;8773;43.300;0.394;2023-02-03T02:41:09;101539.69;;;1.67;69.40
17311;BME280;8773;43.300;0.394;2023-02-03T02:43:41;101537.03;;;1.68;69.15
17311;BME280;8773;43.300;0.394;2023-02-03T02:46:11;101544.09;;;1.66;69.46
17311;BME280;8773;43.300;0.394;2023-02-03T02:48:45;101548.19;;;1.75;69.21
17311;BME280;8773;43.300;0.394;2023-02-03T02:51:17;101548.19;;;1.75;68.40
17311;BME280;8773;43.300;0.394;2023-02-03T02:53:49;101547.28;;;1.76;68.40
17311;BME280;8773;43.300;0.394;2023-02-03T02:56:18;101551.09;;;1.67;68.86
17311;BME280;8773;43.300;0.394;2023-02-03T02:58:48;101551.03;;;1.69;68.59
17311;BME280;8773;43.300;0.394;2023-02-03T03:01:17;101547.44;;;1.71;68.45
17311;BME280;8773;43.300;0.394;2023-02-03T03:03:47;101544.06;;;1.68;68.52
17311;BME280;8773;43.300;0.394;2023-02-03T03:06:18;101541.25;;;1.72;68.17
17311;BME280;8773;43.300;0.394;2023-02-03T03:08:53;101546.47;;;1.74;68.20
17311;BME280;8773;43.300;0.394;2023-02-03T03:11:26;101541.47;;;1.66;68.59
17311;BME280;8773;43.300;0.394;2023-02-03T03:13:56;101543.09;;;1.70;68.29
17311;BME280;8773;43.300;0.394;2023-02-03T03:16:26;101547.22;;;1.77;68.28
17311;BME280;8773;43.300;0.394;2023-02-03T03:19:00;101548.25;;;1.73;68.25
17311;BME280;8773;43.300;0.394;2023-02-03T03:21:32;101545.66;;;1.72;68.92
17311;BME280;8773;43.300;0.394;2023-02-03T03:24:07;101556.38;;;1.67;69.19
17311;BME280;8773;43.300;0.394;2023-02-03T03:26:39;101556.47;;;1.64;69.17
17311;BME280;8773;43.300;0.394;2023-02-03T03:29:12;101556.53;;;1.63;69.15
17311;BME280;8773;43.300;0.394;2023-02-03T03:31:42;101547.81;;;1.61;68.45
17311;BME280;8773;43.300;0.394;2023-02-03T03:34:13;101546.75;;;1.66;68.61
17311;BME280;8773;43.300;0.394;2023-02-03T03:36:45;101548.53;;;1.66;68.60
17311;BME280;8773;43.300;0.394;2023-02-03T03:39:21;101554.53;;;1.69;68.20
17311;BME280;8773;43.300;0.394;2023-02-03T03:41:56;101547.50;;;1.70;68.51
17311;BME280;8773;43.300;0.394;2023-02-03T03:44:28;101543.16;;;1.69;68.07
17311;BME280;8773;43.300;0.394;2023-02-03T03:47:03;101543.47;;;1.60;68.46
17311;BME280;8773;43.300;0.394;2023-02-03T03:49:34;101552.47;;;1.54;68.35
17311;BME280;8773;43.300;0.394;2023-02-03T03:52:06;101545.53;;;1.52;68.94
17311;BME280;8773;43.300;0.394;2023-02-03T03:54:37;101554.50;;;1.46;68.99
17311;BME280;8773;43.300;0.394;2023-02-03T03:57:10;101554.00;;;1.35;69.61
17311;BME280;8773;43.300;0.394;2023-02-03T03:59:47;101560.19;;;1.34;69.68
17311;BME280;8773;43.300;0.394;2023-02-03T04:02:17;101553.31;;;1.30;69.84
17311;BME280;8773;43.300;0.394;2023-02-03T04:04:48;101557.59;;;1.32;69.92
17311;BME280;8773;43.300;0.394;2023-02-03T04:07:16;101561.41;;;0.97;71.00
17311;BME280;8773;43.300;0.394;2023-02-03T04:09:45;101564.88;;;0.99;71.23
17311;BME280;8773;43.300;0.394;2023-02-03T04:12:19;101573.47;;;1.04;71.29
17311;BME280;8773;43.300;0.394;2023-02-03T04:14:49;101575.94;;;1.09;70.85
17311;BME280;8773;43.300;0.394;2023-02-03T04:17:17;101572.03;;;1.21;70.42
17311;BME280;8773;43.300;0.394;2023-02-03T04:19:47;101567.53;;;1.24;70.18
17311;BME280;8773;43.300;0.394;2023-02-03T04:22:15;101574.97;;;1.38;69.14
17311;BME280;8773;43.300;0.394;2023-02-03T04:24:43;101575.72;;;1.41;69.16
17311;BME280;8773;43.300;0.394;2023-02-03T04:27:14;101579.09;;;1.45;68.70
17311;BME280;8773;43.300;0.394;2023-02-03T04:29:41;101577.28;;;1.47;68.87
17311;BME280;8773;43.300;0.394;2023-02-03T04:32:09;101576.31;;;1.50;68.15
17311;BME280;8773;43.300;0.394;2023-02-03T04:34:37;101572.66;;;1.54;68.52
17311;BME280;8773;43.300;0.394;2023-02-03T04:37:07;101579.06;;;1.47;68.03
17311;BME280;8773;43.300;0.394;2023-02-03T04:39:35;101584.47;;;1.42;68.43
17311;BME280;8773;43.300;0.394;2023-02-03T04:42:03;101582.25;;;1.30;69.50
17311;BME280;8773;43.300;0.394;2023-02-03T04:44:31;101581.03;;;1.14;69.90
17311;BME280;8773;43.300;0.394;2023-02-03T04:46:59;101585.00;;;1.00;70.22
17311;BME280;8773;43.300;0.394;2023-02-03T04:49:30;101584.94;;;1.02;70.48
17311;BME280;8773;43.300;0.394;2023-02-03T04:51:57;101592.63;;;1.08;69.99
17311;BME280;8773;43.300;0.394;2023-02-03T04:54:27;101586.72;;;1.01;70.29
17311;BME280;8773;43.300;0.394;2023-02-03T04:56:55;101584.03;;;1.03;70.04
17311;BME280;8773;43.300;0.394;2023-02-03T04:59:23;101583.22;;;1.01;70.05
17311;BME280;8773;43.300;0.394;2023-02-03T05:01:51;101578.81;;;1.01;69.80
17311;BME280;8773;43.300;0.394;2023-02-03T05:04:19;101580.44;;;1.05;70.15
17311;BME280;8773;43.300;0.394;2023-02-03T05:06:47;101588.44;;;1.02;70.32
17311;BME280;8773;43.300;0.394;2023-02-03T05:09:15;101581.56;;;0.98;70.37
17311;BME280;8773;43.300;0.394;2023-02-03T05:11:45;101577.81;;;1.05;70.36
17311;BME280;8773;43.300;0.394;2023-02-03T05:14:13;101571.44;;;1.13;69.85
17311;BME280;8773;43.300;0.394;2023-02-03T05:16:41;101571.50;;;1.11;69.74
17311;BME280;8773;43.300;0.394;2023-02-03T05:19:09;101578.72;;;1.04;69.99
17311;BME280;8773;43.300;0.394;2023-02-03T05:21:37;101578.72;;;1.04;69.76
17311;BME280;8773;43.300;0.394;2023-02-03T05:24:05;101580.22;;;0.85;70.48
17311;BME280;8773;43.300;0.394;2023-02-03T05:26:34;101585.03;;;0.71;70.79
17311;BME280;8773;43.300;0.394;2023-02-03T05:29:03;101586.97;;;0.66;71.37
17311;BME280;8773;43.300;0.394;2023-02-03T05:31:31;101588.41;;;0.76;71.07
17311;BME280;8773;43.300;0.394;2023-02-03T05:34:00;101582.75;;;0.88;70.19
17311;BME280;8773;43.300;0.394;2023-02-03T05:36:28;101574.53;;;0.99;69.73
17311;BME280;8773;43.300;0.394;2023-02-03T05:38:56;101577.19;;;0.97;69.66
17311;BME280;8773;43.300;0.394;2023-02-03T05:41:24;101580.66;;;0.99;69.38
17311;BME280;8773;43.300;0.394;2023-02-03T05:44:11;101580.06;;;0.90;69.84
17311;BME280;8773;43.300;0.394;2023-02-03T05:46:39;101575.97;;;0.81;70.41
17311;BME280;8773;43.300;0.394;2023-02-03T05:49:07;101577.69;;;0.82;70.46
17311;BME280;8773;43.300;0.394;2023-02-03T05:51:35;101571.03;;;0.70;70.90
17311;BME280;8773;43.300;0.394;2023-02-03T05:54:03;101570.31;;;0.67;71.17
17311;BME280;8773;43.300;0.394;2023-02-03T05:56:31;101573.13;;;0.61;71.25
17311;BME280;8773;43.300;0.394;2023-02-03T05:58:59;101567.97;;;0.58;71.42
17311;BME280;8773;43.300;0.394;2023-02-03T06:01:28;101573.13;;;0.61;71.38
17311;BME280;8773;43.300;0.394;2023-02-03T06:03:56;101572.13;;;0.65;71.12
17311;BME280;8773;43.300;0.394;2023-02-03T06:06:25;101571.22;;;0.66;70.90
17311;BME280;8773;43.300;0.394;2023-02-03T06:08:58;101570.59;;;0.58;71.30
17311;BME280;8773;43.300;0.394;2023-02-03T06:11:27;101570.13;;;0.43;71.81
17311;BME280;8773;43.300;0.394;2023-02-03T06:13:56;101572.75;;;0.43;71.64
17311;BME280;8773;43.300;0.394;2023-02-03T06:16:24;101576.06;;;0.22;72.93
17311;BME280;8773;43.300;0.394;2023-02-03T06:18:55;101582.56;;;0.38;72.63
17311;BME280;8773;43.300;0.394;2023-02-03T06:21:25;101568.06;;;0.55;71.74
17311;BME280;8773;43.300;0.394;2023-02-03T06:23:53;101578.28;;;0.64;71.36
17311;BME280;8773;43.300;0.394;2023-02-03T06:26:22;101571.13;;;0.69;71.12
17311;BME280;8773;43.300;0.394;2023-02-03T06:28:50;101577.09;;;0.72;71.04
17311;BME280;8773;43.300;0.394;2023-02-03T06:31:18;101565.69;;;0.73;70.88
17311;BME280;8773;43.300;0.394;2023-02-03T06:33:47;101575.97;;;0.81;70.57
17311;BME280;8773;43.300;0.394;2023-02-03T06:36:16;101577.69;;;0.82;70.83
17311;BME280;8773;43.300;0.394;2023-02-03T06:38:44;101572.22;;;0.88;70.38
17311;BME280;8773;43.300;0.394;2023-02-03T06:41:12;101573.84;;;0.92;70.27
17311;BME280;8773;43.300;0.394;2023-02-03T06:43:40;101570.50;;;0.87;70.33
17311;BME280;8773;43.300;0.394;2023-02-03T06:46:10;101577.44;;;0.90;70.44
17311;BME280;8773;43.300;0.394;2023-02-03T06:48:38;101583.56;;;0.90;70.27
17311;BME280;8773;43.300;0.394;2023-02-03T06:51:06;101573.97;;;0.89;69.86
17311;BME280;8773;43.300;0.394;2023-02-03T06:53:36;101581.75;;;0.92;69.67
17311;BME280;8773;43.300;0.394;2023-02-03T06:56:04;101582.84;;;0.85;70.34
17311;BME280;8773;43.300;0.394;2023-02-03T06:58:32;101577.44;;;0.90;70.35
17311;BME280;8773;43.300;0.394;2023-02-03T07:01:00;101583.50;;;0.92;69.77
17311;BME280;8773;43.300;0.394;2023-02-03T07:03:28;101575.53;;;0.95;69.56
17311;BME280;8773;43.300;0.394;2023-02-03T07:05:56;101574.66;;;0.94;69.77
17311;BME280;8773;43.300;0.394;2023-02-03T07:08:24;101575.53;;;0.95;69.56
17311;BME280;8773;43.300;0.394;2023-02-03T07:10:54;101564.16;;;0.94;69.59
17311;BME280;8773;43.300;0.394;2023-02-03T07:13:22;101566.69;;;0.97;69.24
17311;BME280;8773;43.300;0.394;2023-02-03T07:15:50;101567.59;;;0.96;69.33
17311;BME280;8773;43.300;0.394;2023-02-03T07:18:18;101571.22;;;0.92;69.03
17311;BME280;8773;43.300;0.394;2023-02-03T07:21:10;101576.56;;;0.63;70.19
17311;BME280;8773;43.300;0.394;2023-02-03T07:23:38;101586.97;;;0.66;70.31
17311;BME280;8773;43.300;0.394;2023-02-03T07:26:09;101586.47;;;0.81;69.98
17311;BME280;8773;43.300;0.394;2023-02-03T07:28:37;101576.63;;;0.88;69.35
17311;BME280;8773;43.300;0.394;2023-02-03T07:31:05;101575.69;;;0.90;69.04
17311;BME280;8773;43.300;0.394;2023-02-03T07:33:36;101585.13;;;0.96;68.73
17311;BME280;8773;43.300;0.394;2023-02-03T07:36:05;101589.53;;;0.95;68.67
17311;BME280;8773;43.300;0.394;2023-02-03T07:38:33;101589.53;;;0.95;68.67
17311;BME280;8773;43.300;0.394;2023-02-03T07:41:03;101588.63;;;0.96;68.17
17311;BME280;8773;43.300;0.394;2023-02-03T07:43:33;101591.97;;;1.01;68.50
17311;BME280;8773;43.300;0.394;2023-02-03T07:46:01;101594.41;;;1.07;68.25
17311;BME280;8773;43.300;0.394;2023-02-03T07:48:29;101596.09;;;1.10;68.34
17311;BME280;8773;43.300;0.394;2023-02-03T07:50:57;101597.66;;;1.14;68.35
17311;BME280;8773;43.300;0.394;2023-02-03T07:53:25;101598.22;;;1.24;67.93
17311;BME280;8773;43.300;0.394;2023-02-03T07:55:53;101598.75;;;1.35;67.79
17311;BME280;8773;43.300;0.394;2023-02-03T07:58:21;101600.25;;;1.42;67.54
17311;BME280;8773;43.300;0.394;2023-02-03T08:00:50;101604.25;;;1.54;67.29
17311;BME280;8773;43.300;0.394;2023-02-03T08:03:18;101597.63;;;1.67;67.32
17311;BME280;8773;43.300;0.394;2023-02-03T08:05:46;101602.63;;;1.74;66.61
17311;BME280;8773;43.300;0.394;2023-02-03T08:08:15;101603.13;;;1.86;66.80
17311;BME280;8773;43.300;0.394;2023-02-03T08:10:43;101609.59;;;2.00;66.67
17311;BME280;8773;43.300;0.394;2023-02-03T08:13:11;101609.91;;;2.16;65.71
17311;BME280;8773;43.300;0.394;2023-02-03T08:15:39;101617.31;;;2.30;65.73
17311;BME280;8773;43.300;0.394;2023-02-03T08:18:08;101611.50;;;2.43;65.89
17311;BME280;8773;43.300;0.394;2023-02-03T08:20:38;101614.59;;;2.55;65.58
17311;BME280;8773;43.300;0.394;2023-02-03T08:23:06;101618.06;;;2.55;65.17
17311;BME280;8773;43.300;0.394;2023-02-03T08:25:34;101617.28;;;2.53;65.43
17311;BME280;8773;43.300;0.394;2023-02-03T08:28:02;101621.63;;;2.54;64.85
17311;BME280;8773;43.300;0.394;2023-02-03T08:30:30;101612.69;;;2.58;65.12
17311;BME280;8773;43.300;0.394;2023-02-03T08:32:58;101611.38;;;2.70;64.86
17311;BME280;8773;43.300;0.394;2023-02-03T08:35:28;101607.00;;;2.69;64.36
17311;BME280;8773;43.300;0.394;2023-02-03T08:37:56;101609.06;;;2.84;64.25
17311;BME280;8773;43.300;0.394;2023-02-03T08:40:24;101609.91;;;2.85;64.30
17311;BME280;8773;43.300;0.394;2023-02-03T08:42:52;101615.25;;;2.83;63.71
17311;BME280;8773;43.300;0.394;2023-02-03T08:45:20;101610.25;;;2.97;63.67
17311;BME280;8773;43.300;0.394;2023-02-03T08:47:48;101608.91;;;3.09;63.90
17311;BME280;8773;43.300;0.394;2023-02-03T08:50:16;101599.69;;;3.19;63.75
17311;BME280;8773;43.300;0.394;2023-02-03T08:52:46;101600.88;;;3.32;62.47
17311;BME280;8773;43.300;0.394;2023-02-03T08:55:14;101607.75;;;3.36;62.99
17311;BME280;8773;43.300;0.394;2023-02-03T08:57:43;101606.78;;;3.39;63.15
17311;BME280;8773;43.300;0.394;2023-02-03T09:00:12;101613.25;;;3.52;62.59
17311;BME280;8773;43.300;0.394;2023-02-03T09:02:40;101621.91;;;3.56;62.59
17311;BME280;8773;43.300;0.394;2023-02-03T09:05:08;101628.47;;;3.67;62.95
17311;BME280;8773;43.300;0.394;2023-02-03T09:07:37;101624.81;;;3.90;62.09
17311;BME280;8773;43.300;0.394;2023-02-03T09:10:07;101634.03;;;4.02;61.81
17311;BME280;8773;43.300;0.394;2023-02-03T09:12:35;101634.47;;;3.71;62.14
17311;BME280;8773;43.300;0.394;2023-02-03T09:15:03;101643.91;;;3.56;63.43
17311;BME280;8773;43.300;0.394;2023-02-03T09:17:32;101618.16;;;3.61;63.02
17311;BME280;8773;43.300;0.394;2023-02-03T09:20:00;101627.75;;;4.04;62.30
17311;BME280;8773;43.300;0.394;2023-02-03T09:22:28;101638.53;;;4.39;61.89
17311;BME280;8773;43.300;0.394;2023-02-03T09:24:56;101636.44;;;4.64;61.05
17311;BME280;8773;43.300;0.394;2023-02-03T09:27:26;101638.09;;;4.86;60.19
17311;BME280;8773;43.300;0.394;2023-02-03T09:29:54;101633.69;;;5.03;59.67
17311;BME280;8773;43.300;0.394;2023-02-03T09:32:24;101632.03;;;5.20;59.28
17311;BME280;8773;43.300;0.394;2023-02-03T09:34:52;101628.63;;;5.35;59.42
17311;BME280;8773;43.300;0.394;2023-02-03T09:37:20;101625.69;;;5.41;59.14
17311;BME280;8773;43.300;0.394;2023-02-03T09:39:48;101639.84;;;5.57;58.60
17311;BME280;8773;43.300;0.394;2023-02-03T09:42:30;101636.91;;;5.63;58.75
17311;BME280;8773;43.300;0.394;2023-02-03T09:45:10;101646.56;;;5.64;58.11
17311;BME280;8773;43.300;0.394;2023-02-03T09:47:42;101644.22;;;5.75;57.36
17311;BME280;8773;43.300;0.394;2023-02-03T09:50:13;101650.09;;;5.82;58.18
17311;BME280;8773;43.300;0.394;2023-02-03T09:52:47;101652.41;;;5.88;58.10
17311;BME280;8773;43.300;0.394;2023-02-03T09:55:25;101646.38;;;6.02;58.09
17311;BME280;8773;43.300;0.394;2023-02-03T09:58:01;101654.41;;;6.18;57.40
17311;BME280;8773;43.300;0.394;2023-02-03T10:00:34;101658.44;;;6.25;57.81
17311;BME280;8773;43.300;0.394;2023-02-03T10:03:06;101651.44;;;6.39;56.60
17311;BME280;8773;43.300;0.394;2023-02-03T10:05:48;101651.16;;;6.46;56.77
17311;BME280;8773;43.300;0.394;2023-02-03T10:08:27;101655.19;;;6.53;56.56
17311;BME280;8773;43.300;0.394;2023-02-03T10:11:07;101659.84;;;6.65;56.60
17311;BME280;8773;43.300;0.394;2023-02-03T10:13:48;101663.28;;;6.67;55.69
17311;BME280;8773;43.300;0.394;2023-02-03T10:16:30;101661.91;;;6.75;55.76
17311;BME280;8773;43.300;0.394;2023-02-03T10:19:07;101664.91;;;6.85;56.20
17311;BME280;8773;43.300;0.394;2023-02-03T10:21:40;101662.59;;;6.95;55.19
17311;BME280;8773;43.300;0.394;2023-02-03T10:24:13;101642.38;;;6.92;55.02
17311;BME280;8773;43.300;0.394;2023-02-03T10:26:42;101679.41;;;7.11;54.45
17311;BME280;8773;43.300;0.394;2023-02-03T10:29:18;101675.63;;;7.15;54.99
17311;BME280;8773;43.300;0.394;2023-02-03T10:31:47;101669.00;;;7.22;55.39
17311;BME280;8773;43.300;0.394;2023-02-03T10:34:16;101672.94;;;7.31;54.54
17311;BME280;8773;43.300;0.394;2023-02-03T10:36:56;101673.19;;;7.42;53.84
17311;BME280;8773;43.300;0.394;2023-02-03T10:39:29;101671.81;;;7.51;53.80
17311;BME280;8773;43.300;0.394;2023-02-03T10:41:59;101672.13;;;7.60;54.61
17311;BME280;8773;43.300;0.394;2023-02-03T10:44:35;101665.56;;;7.66;53.74
17311;BME280;8773;43.300;0.394;2023-02-03T10:47:30;101667.41;;;7.80;53.50
17311;BME280;8773;43.300;0.394;2023-02-03T10:50:03;101675.13;;;7.84;53.95
17311;BME280;8773;43.300;0.394;2023-02-03T10:52:34;101672.78;;;7.94;53.42
17311;BME280;8773;43.300;0.394;2023-02-03T10:55:05;101674.13;;;8.01;54.01
17311;BME280;8773;43.300;0.394;2023-02-03T10:57:35;101682.94;;;7.87;52.58
17311;BME280;8773;43.300;0.394;2023-02-03T11:00:19;101667.69;;;8.05;53.47
17311;BME280;8773;43.300;0.394;2023-02-03T11:03:03;101665.59;;;8.24;53.29
17311;BME280;8773;43.300;0.394;2023-02-03T11:05:32;101663.19;;;8.35;52.51
17311;BME280;8773;43.300;0.394;2023-02-03T11:08:01;101669.06;;;8.40;52.21
17311;BME280;8773;43.300;0.394;2023-02-03T11:10:32;101661.94;;;8.41;52.16
17311;BME280;8773;43.300;0.394;2023-02-03T11:13:18;101652.72;;;8.47;52.15
17311;BME280;8773;43.300;0.394;2023-02-03T11:15:58;101642.53;;;8.53;52.15
17311;BME280;8773;43.300;0.394;2023-02-03T11:18:51;101653.50;;;8.49;52.82
17311;BME280;8773;43.300;0.394;2023-02-03T11:21:21;101646.53;;;8.60;52.36
17311;BME280;8773;43.300;0.394;2023-02-03T11:23:56;101647.19;;;8.64;51.97
17311;BME280;8773;43.300;0.394;2023-02-03T11:26:30;101650.91;;;8.61;51.60
17311;BME280;8773;43.300;0.394;2023-02-03T11:29:00;101647.94;;;8.80;51.90
17311;BME280;8773;43.300;0.394;2023-02-03T11:31:32;101648.22;;;8.75;52.14
17311;BME280;8773;43.300;0.394;2023-02-03T11:34:03;101633.06;;;8.90;52.25
17311;BME280;8773;43.300;0.394;2023-02-03T11:36:33;101625.72;;;8.94;52.03
17311;BME280;8773;43.300;0.394;2023-02-03T11:39:19;101617.28;;;9.14;51.16
17311;BME280;8773;43.300;0.394;2023-02-03T11:41:47;101628.69;;;9.16;51.40
17311;BME280;8773;43.300;0.394;2023-02-03T11:44:18;101630.13;;;9.22;51.47
17311;BME280;8773;43.300;0.394;2023-02-03T11:46:50;101618.75;;;9.32;51.06
17311;BME280;8773;43.300;0.394;2023-02-03T11:50:05;101607.16;;;9.46;50.89
17311;BME280;8773;43.300;0.394;2023-02-03T11:53:10;101606.59;;;9.41;50.89
17311;BME280;8773;43.300;0.394;2023-02-03T11:55:52;101600.75;;;9.36;50.76
17311;BME280;8773;43.300;0.394;2023-02-03T12:01:45;101594.16;;;9.54;50.06
17311;BME280;8773;43.300;0.394;2023-02-03T12:04:42;101598.66;;;9.66;49.83
17311;BME280;8773;43.300;0.394;2023-02-03T12:07:25;101592.44;;;9.53;49.41
17311;BME280;8773;43.300;0.394;2023-02-03T12:10:01;101592.69;;;9.63;49.73
17311;BME280;8773;43.300;0.394;2023-02-03T12:12:45;101575.31;;;9.70;49.48
17311;BME280;8773;43.300;0.394;2023-02-03T12:15:28;101575.19;;;9.84;48.50
17311;BME280;8773;43.300;0.394;2023-02-03T12:18:09;101561.84;;;9.84;48.55
17311;BME280;8773;43.300;0.394;2023-02-03T12:20:57;101558.91;;;9.89;48.97
17311;BME280;8773;43.300;0.394;2023-02-03T12:23:36;101559.75;;;9.76;47.60
17311;BME280;8773;43.300;0.394;2023-02-03T12:26:13;101560.38;;;9.15;49.17
17311;BME280;8773;43.300;0.394;2023-02-03T12:28:50;101566.19;;;9.47;49.76
17311;BME280;8773;43.300;0.394;2023-02-03T12:31:26;101554.50;;;9.75;49.01
17311;BME280;8773;43.300;0.394;2023-02-03T12:34:03;101549.19;;;9.88;47.96
17311;BME280;8773;43.300;0.394;2023-02-03T12:36:38;101542.69;;;9.92;47.51
17311;BME280;8773;43.300;0.394;2023-02-03T12:39:14;101536.06;;;9.97;47.49
17311;BME280;8773;43.300;0.394;2023-02-03T12:41:48;101528.91;;;9.98;47.14
17311;BME280;8773;43.300;0.394;2023-02-03T12:44:20;101527.63;;;10.16;47.33
17311;BME280;8773;43.300;0.394;2023-02-03T12:46:54;101522.75;;;10.34;47.77
17311;BME280;8773;43.300;0.394;2023-02-03T12:49:33;101518.22;;;10.47;47.08
17311;BME280;8773;43.300;0.394;2023-02-03T12:52:09;101515.00;;;10.55;46.56
17311;BME280;8773;43.300;0.394;2023-02-03T12:54:45;101506.31;;;10.64;46.57
17311;BME280;8773;43.300;0.394;2023-02-03T12:57:19;101503.28;;;10.68;46.70
17311;BME280;8773;43.300;0.394;2023-02-03T12:59:57;101507.09;;;10.77;46.09
17311;BME280;8773;43.300;0.394;2023-02-03T13:02:31;101493.00;;;10.75;46.06
17311;BME280;8773;43.300;0.394;2023-02-03T13:05:06;101501.41;;;10.82;45.75
17311;BME280;8773;43.300;0.394;2023-02-03T13:07:45;101499.88;;;10.90;45.91
17311;BME280;8773;43.300;0.394;2023-02-03T13:10:18;101490.44;;;10.97;46.22
17311;BME280;8773;43.300;0.394;2023-02-03T13:12:51;101493.47;;;10.93;46.00
17311;BME280;8773;43.300;0.394;2023-02-03T13:15:26;101489.47;;;10.98;46.46
17311;BME280;8773;43.300;0.394;2023-02-03T13:17:59;101489.25;;;11.01;45.45
17311;BME280;8773;43.300;0.394;2023-02-03T13:20:32;101484.28;;;11.08;45.13
17311;BME280;8773;43.300;0.394;2023-02-03T13:23:06;101489.25;;;11.01;45.65
17311;BME280;8773;43.300;0.394;2023-02-03T13:25:47;101484.13;;;10.98;44.97
17311;BME280;8773;43.300;0.394;2023-02-03T13:28:29;101478.44;;;11.14;45.61
17311;BME280;8773;43.300;0.394;2023-02-03T13:31:16;101469.78;;;11.34;45.61
17311;BME280;8773;43.300;0.394;2023-02-03T13:34:01;101475.16;;;11.34;44.96
17311;BME280;8773;43.300;0.394;2023-02-03T13:36:59;101471.50;;;11.35;44.07
17311;BME280;8773;43.300;0.394;2023-02-03T13:39:49;101458.16;;;11.58;44.72
17311;BME280;8773;43.300;0.394;2023-02-03T13:42:23;101463.50;;;11.47;43.72